Time;durP1;ratioP1;P1;durP2;ratioP2;P2;SDS_P1;SDS_P2;PMS_P1;PMS_P2;Temp;Humidity;BMP_temperature;BMP_pressure;BME280_temperature;BME280_humidity;BME280_pressure;Samples;Min_cycle;Max_cycle;Signal;HPM_P1;HPM_P2
2021/06/28 00:01:36;;;;;;;17.30;9.53;;;;;;;19.82;82.39;100880.24;1872782;77;21036;-67
2021/06/28 00:04:05;;;;;;;22.40;10.60;;;;;;;19.80;82.50;100876.00;1872767;77;21067;-67
2021/06/28 00:06:34;;;;;;;14.40;9.48;;;;;;;19.80;82.85;100878.66;1872896;77;21102;-67
2021/06/28 00:09:04;;;;;;;21.50;9.58;;;;;;;19.81;82.90;100881.72;1872754;77;21064;-67
2021/06/28 00:11:33;;;;;;;15.05;9.43;;;;;;;19.80;82.89;100886.68;1872751;77;21036;-67
2021/06/28 00:14:01;;;;;;;21.05;9.10;;;;;;;19.77;82.86;100881.56;1872902;77;21068;-67
2021/06/28 00:16:30;;;;;;;15.68;9.28;;;;;;;19.74;82.84;100879.14;1872798;77;21016;-67
2021/06/28 00:19:02;;;;;;;18.17;9.50;;;;;;;19.71;82.75;100875.33;1872925;77;21020;-67
2021/06/28 00:21:30;;;;;;;16.17;9.55;;;;;;;19.70;82.73;100874.94;1872874;76;21044;-67
2021/06/28 00:23:59;;;;;;;19.95;9.08;;;;;;;19.70;82.72;100869.14;1872685;77;21552;-67
2021/06/28 00:26:28;;;;;;;19.12;8.95;;;;;;;19.68;82.75;100867.91;1872763;75;21165;-67
2021/06/28 00:28:57;;;;;;;15.58;8.68;;;;;;;19.70;82.74;100874.94;1872796;76;21076;-67
2021/06/28 00:31:25;;;;;;;20.17;9.00;;;;;;;19.67;82.80;100870.20;1872856;77;21105;-67
2021/06/28 00:33:56;;;;;;;18.35;8.33;;;;;;;19.65;82.98;100873.47;1872767;77;21473;-67
2021/06/28 00:36:25;;;;;;;13.85;8.10;;;;;;;19.64;83.00;100859.77;1873314;76;21138;-67
2021/06/28 00:38:54;;;;;;;14.20;8.20;;;;;;;19.63;83.08;100859.39;1891518;76;21525;-66
2021/06/28 00:41:23;;;;;;;18.50;9.15;;;;;;;19.61;83.14;100858.66;1891482;76;21128;-66
2021/06/28 00:43:51;;;;;;;13.22;7.72;;;;;;;19.61;83.18;100855.14;1891491;76;21120;-67
2021/06/28 00:46:20;;;;;;;15.45;8.43;;;;;;;19.61;83.19;100859.14;1891449;76;21039;-66
2021/06/28 00:48:49;;;;;;;16.48;8.50;;;;;;;19.59;83.17;100860.59;1891389;76;21062;-66
2021/06/28 00:51:18;;;;;;;14.58;8.18;;;;;;;19.59;83.14;100856.59;1891484;76;21083;-68
2021/06/28 00:53:48;;;;;;;12.90;8.85;;;;;;;19.58;83.11;100849.52;1891649;76;21580;-67
2021/06/28 00:56:17;;;;;;;15.18;8.45;;;;;;;19.57;83.10;100850.51;1891439;76;21588;-68
2021/06/28 00:58:48;;;;;;;16.77;8.88;;;;;;;19.56;83.17;100845.28;1891472;76;21490;-67
2021/06/28 01:01:17;;;;;;;15.13;8.98;;;;;;;19.54;83.17;100844.05;1891419;76;21039;-67
2021/06/28 01:03:46;;;;;;;16.67;9.38;;;;;;;19.51;83.17;100846.94;1891555;76;21121;-66
2021/06/28 01:06:15;;;;;;;19.15;9.15;;;;;;;19.48;83.15;100852.05;1891505;76;21067;-66
2021/06/28 01:08:44;;;;;;;16.00;8.78;;;;;;;19.46;83.18;100857.14;1891555;76;21035;-66
2021/06/28 01:11:13;;;;;;;14.33;9.33;;;;;;;19.42;83.20;100855.64;1891387;75;21047;-66
2021/06/28 01:13:43;;;;;;;18.12;9.60;;;;;;;19.41;83.27;100856.63;1891425;76;21133;-66
2021/06/28 01:16:12;;;;;;;22.00;9.83;;;;;;;19.37;83.36;100857.83;1891424;76;21588;-67
2021/06/28 01:18:41;;;;;;;15.05;9.38;;;;;;;19.32;83.53;100859.98;1891480;76;21141;-67
2021/06/28 01:21:12;;;;;;;18.52;10.93;;;;;;;19.29;83.71;100863.70;1891421;76;21450;-67
2021/06/28 01:23:40;;;;;;;17.40;9.60;;;;;;;19.24;83.89;100864.06;1891431;76;21011;-67
2021/06/28 01:26:11;;;;;;;20.37;10.15;;;;;;;19.22;84.08;100868.67;1891592;76;21050;-67
2021/06/28 01:28:41;;;;;;;18.57;9.78;;;;;;;19.21;84.09;100872.28;1891379;76;21031;-67
2021/06/28 01:31:11;;;;;;;19.73;9.63;;;;;;;19.20;84.09;100883.95;1891407;75;21481;-67
2021/06/28 01:33:41;;;;;;;18.20;10.03;;;;;;;19.18;84.06;100887.21;1891683;76;21584;-67
2021/06/28 01:36:10;;;;;;;18.50;9.90;;;;;;;19.18;84.05;100881.00;1891459;76;21055;-67
2021/06/28 01:38:39;;;;;;;20.20;10.40;;;;;;;19.17;84.04;100889.50;1879282;76;21698;-67
2021/06/28 01:41:08;;;;;;;21.60;12.03;;;;;;;19.20;84.15;100885.73;1872652;77;21119;-67
2021/06/28 01:43:36;;;;;;;20.80;11.97;;;;;;;19.24;84.36;100895.25;1872915;77;21008;-67
2021/06/28 01:46:05;;;;;;;20.00;12.68;;;;;;;19.29;84.59;100890.41;1872869;77;21031;-67
2021/06/28 01:48:37;;;;;;;20.57;11.40;;;;;;;19.34;84.69;100886.92;1872732;77;21137;-67
2021/06/28 01:51:05;;;;;;;21.80;11.28;;;;;;;19.38;84.80;100888.88;1872703;76;21106;-66
2021/06/28 01:53:33;;;;;;;20.60;10.35;;;;;;;19.39;84.76;100889.27;1872728;76;21032;-67
2021/06/28 01:56:05;;;;;;;23.87;11.73;;;;;;;19.40;84.73;100890.95;1872734;77;21024;-67
2021/06/28 01:58:36;;;;;;;19.73;11.68;;;;;;;19.43;84.79;100897.41;1872746;77;21102;-67
2021/06/28 02:01:07;;;;;;;22.95;12.63;;;;;;;19.46;84.92;100891.36;1872710;77;21117;-67
2021/06/28 02:03:39;;;;;;;22.82;12.70;;;;;;;19.53;84.97;100893.11;1872861;77;21008;-67
2021/06/28 02:06:08;;;;;;;20.32;11.50;;;;;;;19.62;85.14;100898.23;1872757;77;21032;-67
2021/06/28 02:08:37;;;;;;;17.35;10.35;;;;;;;19.72;85.23;100905.09;1872725;77;21039;-67
2021/06/28 02:11:07;;;;;;;25.35;11.43;;;;;;;19.76;85.11;100907.44;1872660;77;21112;-66
2021/06/28 02:13:37;;;;;;;23.45;10.95;;;;;;;19.80;85.03;100902.72;1872693;77;21450;-66
2021/06/28 02:16:07;;;;;;;19.42;10.13;;;;;;;19.84;85.06;100904.17;1872683;77;21043;-66
2021/06/28 02:18:36;;;;;;;19.12;10.88;;;;;;;19.91;85.04;100912.10;1872611;75;21552;-66
2021/06/28 02:21:07;;;;;;;22.00;10.53;;;;;;;19.96;85.00;100917.95;1872682;76;21560;-66
2021/06/28 02:23:38;;;;;;;18.80;9.55;;;;;;;20.00;84.93;100916.75;1872719;76;21008;-66
2021/06/28 02:26:09;;;;;;;15.85;9.03;;;;;;;20.03;84.82;100922.36;1872675;75;21063;-66
2021/06/28 02:28:41;;;;;;;16.32;9.13;;;;;;;20.08;84.70;100928.68;1872798;77;21044;-66
2021/06/28 02:31:12;;;;;;;20.02;8.78;;;;;;;20.13;84.62;100919.83;1872567;76;21577;-66
2021/06/28 02:33:42;;;;;;;16.48;8.85;;;;;;;20.19;84.50;100920.69;1872658;77;21612;-66
2021/06/28 02:36:11;;;;;;;15.08;7.83;;;;;;;20.26;84.32;100928.61;1872641;76;21149;-67
2021/06/28 02:38:42;;;;;;;17.27;8.65;;;;;;;20.34;84.16;100931.53;1872578;75;21119;-66
2021/06/28 02:41:11;;;;;;;19.20;8.75;;;;;;;20.44;84.05;100929.86;1872667;77;21126;-67
2021/06/28 02:43:41;;;;;;;13.80;7.75;;;;;;;20.54;83.87;100922.45;1872565;77;21620;-67
2021/06/28 02:46:12;;;;;;;18.25;9.23;;;;;;;20.64;83.65;100924.82;1872791;77;21075;-67
2021/06/28 02:48:41;;;;;;;19.95;10.03;;;;;;;20.79;83.60;100923.60;1872726;76;21103;-67
2021/06/28 02:51:12;;;;;;;20.37;9.30;;;;;;;21.11;83.58;100922.84;1872771;76;21118;-67
2021/06/28 02:53:41;;;;;;;22.30;9.15;;;;;;;21.39;83.37;100914.77;1872715;76;21087;-67
2021/06/28 02:56:14;;;;;;;16.70;9.80;;;;;;;21.59;83.34;100914.48;1872619;77;22825;-68
2021/06/28 02:58:51;;;;;;;19.10;9.37;;;;;;;21.78;83.33;100910.27;1873097;76;21044;-66
2021/06/28 03:01:22;;;;;;;13.75;8.98;;;;;;;21.96;83.24;100914.58;1872870;77;21040;-67
2021/06/28 03:03:51;;;;;;;13.20;8.35;;;;;;;22.14;83.14;100918.37;1872651;77;21087;-66
2021/06/28 03:06:21;;;;;;;19.02;9.20;;;;;;;22.28;82.87;100917.24;1872825;77;21000;-67
2021/06/28 03:08:50;;;;;;;9.75;7.53;;;;;;;22.45;82.69;100921.65;1872711;77;21008;-66
2021/06/28 03:11:21;;;;;;;15.53;7.42;;;;;;;22.60;82.25;100922.99;1872689;77;21230;-66
2021/06/28 03:13:51;;;;;;;9.93;6.62;;;;;;;22.67;81.63;100924.16;1872789;77;21036;-66
2021/06/28 03:16:21;;;;;;;11.15;7.10;;;;;;;22.69;80.70;100922.69;1872278;76;21110;-66
2021/06/28 03:18:49;;;;;;;12.23;6.40;;;;;;;22.73;80.33;100929.48;1872650;77;21451;-68
2021/06/28 03:21:18;;;;;;;13.93;7.75;;;;;;;22.82;80.08;100935.89;1872674;77;21257;-67
2021/06/28 03:23:47;;;;;;;14.73;6.67;;;;;;;22.92;79.88;100941.63;1872662;77;21040;-67
2021/06/28 03:26:16;;;;;;;14.18;8.98;;;;;;;22.97;79.52;100940.39;1872677;77;21064;-67
2021/06/28 03:28:45;;;;;;;13.22;7.90;;;;;;;22.96;79.12;100935.49;1872700;77;21059;-67
2021/06/28 03:31:13;;;;;;;14.78;7.70;;;;;;;23.02;79.09;100941.69;1872656;77;21118;-67
2021/06/28 03:33:42;;;;;;;17.62;7.45;;;;;;;23.09;79.05;100944.22;1872660;77;21071;-67
2021/06/28 03:36:11;;;;;;;11.33;6.97;;;;;;;23.23;79.04;100944.81;1872678;77;21091;-67
2021/06/28 03:38:40;;;;;;;19.65;7.95;;;;;;;23.38;78.91;100940.74;1872742;76;21040;-67
2021/06/28 03:41:09;;;;;;;16.00;8.45;;;;;;;23.56;78.77;100938.73;1872670;77;21040;-66
2021/06/28 03:43:37;;;;;;;16.10;7.83;;;;;;;23.73;78.66;100938.03;1872802;77;21068;-67
2021/06/28 03:46:06;;;;;;;17.62;7.42;;;;;;;23.92;78.33;100948.47;1872558;76;21063;-67
2021/06/28 03:48:35;;;;;;;16.77;9.63;;;;;;;24.11;78.21;100945.78;1872786;76;21142;-67
2021/06/28 03:51:04;;;;;;;13.80;7.40;;;;;;;24.26;77.81;100948.38;1872642;77;21040;-67
2021/06/28 03:53:33;;;;;;;11.10;7.50;;;;;;;24.28;77.15;100948.23;1872723;77;21016;-67
2021/06/28 03:56:06;;;;;;;13.10;7.58;;;;;;;24.33;76.77;100950.47;1872697;76;21490;-67
2021/06/28 03:58:34;;;;;;;14.68;8.15;;;;;;;24.47;76.58;100960.80;1872425;76;21041;-69
2021/06/28 04:01:03;;;;;;;17.67;8.80;;;;;;;24.64;76.36;100958.74;1871721;76;21012;-68
2021/06/28 04:03:34;;;;;;;15.60;8.40;;;;;;;24.84;76.13;100958.66;1872702;77;21529;-68
2021/06/28 04:06:06;;;;;;;14.65;8.05;;;;;;;25.03;75.88;100953.71;1872500;76;21044;-67
2021/06/28 04:08:38;;;;;;;12.40;6.87;;;;;;;25.23;75.28;100963.87;1872877;75;21036;-67
2021/06/28 04:11:07;;;;;;;11.00;8.28;;;;;;;25.43;74.62;100972.25;1872640;77;21459;-68
2021/06/28 04:13:36;;;;;;;12.50;7.50;;;;;;;25.62;74.05;100973.96;1872623;77;21060;-67
2021/06/28 04:16:06;;;;;;;15.65;7.80;;;;;;;25.80;73.55;100975.33;1872608;77;21079;-68
2021/06/28 04:18:35;;;;;;;16.55;7.97;;;;;;;25.98;73.05;100971.80;1872754;77;21534;-67
2021/06/28 04:21:04;;;;;;;19.75;9.08;;;;;;;26.17;72.49;100968.08;1872725;77;21191;-66
2021/06/28 04:23:33;;;;;;;10.23;7.05;;;;;;;26.38;71.87;100978.03;1872427;77;21447;-68
2021/06/28 04:26:02;;;;;;;14.85;7.87;;;;;;;26.62;71.33;100979.25;1872642;77;21134;-66
2021/06/28 04:28:31;;;;;;;20.90;7.90;;;;;;;26.88;70.62;100979.23;1872705;76;21122;-67
2021/06/28 04:31:00;;;;;;;12.88;8.08;;;;;;;27.18;70.10;100976.16;1872749;76;21118;-67
2021/06/28 04:33:29;;;;;;;14.87;8.35;;;;;;;27.46;69.18;100979.48;1872748;77;21051;-67
2021/06/28 04:35:57;;;;;;;13.78;8.83;;;;;;;27.77;68.38;100978.89;1872789;77;21219;-68
2021/06/28 04:38:26;;;;;;;12.55;7.60;;;;;;;28.01;67.45;100982.99;1872721;77;21004;-66
2021/06/28 04:40:55;;;;;;;13.13;7.65;;;;;;;28.10;66.76;100988.75;1886261;76;21083;-67
2021/06/28 04:43:24;;;;;;;17.45;8.40;;;;;;;27.82;66.10;100984.66;1891603;76;21047;-67
2021/06/28 04:45:53;;;;;;;17.27;7.95;;;;;;;27.54;66.51;100987.64;1891460;76;21136;-66
2021/06/28 04:48:22;;;;;;;14.80;8.48;;;;;;;27.51;66.47;100979.84;1891509;75;21122;-67
2021/06/28 04:50:50;;;;;;;12.47;8.93;;;;;;;27.55;66.57;100989.31;1891398;76;21118;-67
2021/06/28 04:53:19;;;;;;;15.40;8.78;;;;;;;27.85;66.07;100989.71;1891465;76;21012;-66
2021/06/28 04:55:48;;;;;;;15.55;8.20;;;;;;;27.91;65.51;100989.09;1891705;76;21192;-65
2021/06/28 04:58:17;;;;;;;15.32;9.28;;;;;;;28.02;64.82;100982.51;1891513;75;21051;-65
2021/06/28 05:00:46;;;;;;;13.20;8.18;;;;;;;28.11;63.80;100978.28;1891496;75;21036;-64
2021/06/28 05:03:15;;;;;;;14.43;7.72;;;;;;;28.25;63.97;100984.02;1891406;76;21031;-66
2021/06/28 05:05:44;;;;;;;13.13;8.25;;;;;;;28.55;63.66;100985.71;1891485;76;21040;-66
2021/06/28 05:08:13;;;;;;;13.98;9.65;;;;;;;28.57;63.29;100981.83;1891469;76;21157;-66
2021/06/28 05:10:42;;;;;;;15.78;9.63;;;;;;;28.37;62.76;100981.31;1891466;76;21773;-66
2021/06/28 05:13:11;;;;;;;15.70;8.88;;;;;;;28.33;63.37;100984.52;1891457;76;21125;-66
2021/06/28 05:15:40;;;;;;;15.48;9.18;;;;;;;28.45;63.19;100978.58;1891359;76;21490;-67
2021/06/28 05:18:08;;;;;;;17.77;10.85;;;;;;;28.42;62.95;100974.02;1891466;76;21098;-66
2021/06/28 05:20:37;;;;;;;15.93;10.65;;;;;;;28.00;62.85;100981.80;1891478;76;21502;-66
2021/06/28 05:23:06;;;;;;;18.55;10.80;;;;;;;27.50;63.55;100975.44;1891510;76;21031;-66
2021/06/28 05:25:35;;;;;;;23.32;9.55;;;;;;;27.47;64.19;100979.84;1891595;76;21124;-66
2021/06/28 05:28:04;;;;;;;14.40;9.03;;;;;;;27.76;63.67;100969.06;1891433;75;21043;-66
2021/06/28 05:30:33;;;;;;;15.13;9.65;;;;;;;27.88;62.58;100973.15;1891408;75;21087;-65
2021/06/28 05:33:02;;;;;;;13.13;8.25;;;;;;;27.94;62.42;100971.66;1891425;76;21505;-65
2021/06/28 05:35:31;;;;;;;14.23;8.50;;;;;;;28.17;61.79;100972.69;1891465;76;21067;-65
2021/06/28 05:38:00;;;;;;;12.23;7.62;;;;;;;28.43;61.11;100963.53;1891472;75;21035;-65
2021/06/28 05:40:28;;;;;;;12.23;8.33;;;;;;;28.67;60.12;100964.86;1891464;75;21059;-65
2021/06/28 05:42:57;;;;;;;14.43;8.53;;;;;;;28.77;60.15;100965.17;1891327;76;21118;-66
2021/06/28 05:45:26;;;;;;;10.72;7.50;;;;;;;29.06;59.06;100965.92;1891475;76;21067;-65
2021/06/28 05:47:54;;;;;;;16.87;8.65;;;;;;;29.02;58.43;100970.02;1891493;76;21474;-65
2021/06/28 05:50:24;;;;;;;19.12;8.85;;;;;;;28.67;58.93;100972.98;1891497;76;21007;-64
2021/06/28 05:52:54;;;;;;;18.07;8.98;;;;;;;28.43;59.56;100971.14;1891536;76;21051;-64
2021/06/28 05:55:23;;;;;;;16.20;9.10;;;;;;;28.44;60.24;100960.66;1891354;76;21514;-65
2021/06/28 05:57:52;;;;;;;18.80;9.00;;;;;;;28.43;60.88;100966.24;1891524;76;21035;-64
2021/06/28 06:00:27;;;;;;;13.68;8.70;;;;;;;28.63;60.36;100966.23;1891461;76;21015;-64
2021/06/28 06:02:52;;;;;;;15.15;7.90;;;;;;;28.64;60.25;100976.55;1889174;75;21509;-64
2021/06/28 06:05:21;;;;;;;12.90;8.35;;;;;;;28.85;60.18;100964.64;1891467;76;21071;-64
2021/06/28 06:07:50;;;;;;;14.10;8.25;;;;;;;29.27;59.33;100970.77;1891374;76;21016;-65
2021/06/28 06:10:19;;;;;;;12.43;7.00;;;;;;;29.25;58.59;100966.90;1891452;76;21003;-64
2021/06/28 06:12:47;;;;;;;9.15;6.97;;;;;;;28.90;58.75;100973.59;1891444;75;21043;-64
2021/06/28 06:15:17;;;;;;;8.03;6.42;;;;;;;28.83;59.31;100972.63;1891419;76;21051;-64
2021/06/28 06:17:46;;;;;;;14.13;6.45;;;;;;;29.31;58.60;100970.77;1891457;76;21537;-64
2021/06/28 06:20:15;;;;;;;14.18;7.33;;;;;;;29.88;58.29;100970.08;1891424;76;21064;-67
2021/06/28 06:22:44;;;;;;;12.23;6.90;;;;;;;30.36;56.47;100975.66;1891428;75;21172;-65
2021/06/28 06:25:13;;;;;;;8.80;6.47;;;;;;;30.18;56.31;100979.19;1891432;75;21114;-65
2021/06/28 06:27:42;;;;;;;12.00;6.53;;;;;;;29.86;56.64;100972.14;1891433;76;21110;-65
2021/06/28 06:30:13;;;;;;;28.62;10.55;;;;;;;29.98;56.18;100972.89;1891440;76;21494;-65
2021/06/28 06:32:42;;;;;;;16.87;7.40;;;;;;;30.17;55.68;100974.78;1891607;75;21113;-64
2021/06/28 06:35:11;;;;;;;10.93;6.40;;;;;;;30.25;55.71;100980.16;1891281;76;21079;-65
2021/06/28 06:37:40;;;;;;;10.13;6.20;;;;;;;30.62;55.14;100977.11;1891458;76;21051;-65
2021/06/28 06:40:10;;;;;;;11.25;6.87;;;;;;;31.16;53.92;100983.63;1891443;76;21136;-64
2021/06/28 06:42:38;;;;;;;14.13;8.15;;;;;;;31.25;51.58;100993.89;1891594;76;21067;-64
2021/06/28 06:45:08;;;;;;;15.05;8.03;;;;;;;31.48;51.17;100979.33;1891455;76;21149;-64
2021/06/28 06:47:37;;;;;;;10.23;7.55;;;;;;;31.69;50.07;100986.17;1891439;76;21051;-65
2021/06/28 06:50:07;;;;;;;16.70;8.60;;;;;;;31.91;50.31;100982.94;1891432;75;21011;-65
2021/06/28 06:52:36;;;;;;;13.18;7.60;;;;;;;32.35;50.19;100984.28;1891519;76;21097;-64
2021/06/28 06:55:07;;;;;;;13.25;7.28;;;;;;;32.65;48.75;100990.41;1891395;76;21124;-64
2021/06/28 06:57:37;;;;;;;13.35;7.87;;;;;;;32.72;47.73;100990.44;1891579;76;21145;-64
2021/06/28 07:00:08;;;;;;;11.12;7.58;;;;;;;32.80;47.79;100988.94;1891329;76;21059;-65
2021/06/28 07:02:37;;;;;;;15.20;8.07;;;;;;;33.01;46.84;100983.89;1891722;75;21015;-64
2021/06/28 07:05:07;;;;;;;15.95;7.83;;;;;;;33.09;47.04;100996.02;1891440;76;21465;-64
2021/06/28 07:07:37;;;;;;;10.50;7.37;;;;;;;33.31;46.05;100988.59;1891417;74;21109;-63
2021/06/28 07:10:08;;;;;;;17.17;8.10;;;;;;;33.34;45.96;100986.80;1891667;76;21446;-63
2021/06/28 07:12:36;;;;;;;12.37;8.38;;;;;;;33.39;46.01;100987.56;1891345;76;21116;-63
2021/06/28 07:15:07;;;;;;;17.73;8.55;;;;;;;33.61;46.03;100994.55;1891410;76;21031;-63
2021/06/28 07:17:36;;;;;;;13.32;8.28;;;;;;;33.28;45.37;100987.09;1891550;75;21035;-62
2021/06/28 07:20:07;;;;;;;11.88;7.17;;;;;;;32.80;45.63;100982.12;1891413;75;21027;-63
2021/06/28 07:22:36;;;;;;;10.05;9.03;;;;;;;32.26;47.07;100983.57;1890595;75;21129;-63
2021/06/28 07:25:07;;;;;;;9.50;6.90;;;;;;;32.39;47.58;100986.92;1891317;75;21469;-63
2021/06/28 07:27:37;;;;;;;15.15;7.90;;;;;;;32.58;46.80;100988.16;1891470;76;21126;-63
2021/06/28 07:30:11;;;;;;;12.28;7.70;;;;;;;32.99;47.12;100989.55;1891420;75;21055;-63
2021/06/28 07:32:40;;;;;;;14.13;8.03;;;;;;;33.43;46.32;100985.57;1891420;76;21047;-63
2021/06/28 07:35:11;;;;;;;18.80;8.18;;;;;;;33.75;45.21;100989.15;1891501;76;21551;-63
2021/06/28 07:37:40;;;;;;;15.18;7.50;;;;;;;33.74;44.90;100981.48;1891331;76;21454;-63
2021/06/28 07:40:13;;;;;;;12.90;7.00;;;;;;;33.63;44.75;100986.16;1891519;76;21497;-63
2021/06/28 07:42:42;;;;;;;14.18;7.95;;;;;;;33.62;44.63;100982.57;1891639;75;21067;-63
2021/06/28 07:45:12;;;;;;;32.63;12.58;;;;;;;33.80;44.91;100988.01;1891407;76;21501;-63
2021/06/28 07:47:41;;;;;;;13.93;7.58;;;;;;;33.94;43.98;100982.02;1891403;76;21039;-63
2021/06/28 07:50:11;;;;;;;27.73;10.50;;;;;;;33.82;44.44;100978.55;1891317;76;21067;-64
2021/06/28 07:52:40;;;;;;;15.05;8.43;;;;;;;33.62;44.21;100982.57;1891512;76;21007;-63
2021/06/28 07:55:12;;;;;;;16.15;7.92;;;;;;;33.37;43.34;100974.12;1891396;76;21020;-63
2021/06/28 07:57:41;;;;;;;11.23;7.83;;;;;;;33.31;44.54;100977.68;1891662;76;21043;-63
2021/06/28 08:00:13;;;;;;;12.75;7.15;;;;;;;33.39;44.56;100978.84;1891399;76;21501;-63
2021/06/28 08:02:42;;;;;;;;;;;;;;;33.51;43.93;100972.26;1894171;76;21056;-63
2021/06/28 08:05:11;;;;;;;11.95;8.13;;;;;;;33.46;44.30;100970.69;1891543;75;20123;-63
2021/06/28 08:07:40;;;;;;;12.37;6.97;;;;;;;33.42;42.79;100964.80;1891630;76;21015;-63
2021/06/28 08:10:11;;;;;;;16.05;8.28;;;;;;;33.27;43.24;100969.55;1891511;76;21039;-63
2021/06/28 08:12:45;;;;;;;8.75;6.92;;;;;;;33.38;42.35;100975.78;1891635;76;21113;-63
2021/06/28 08:15:15;;;;;;;12.90;7.42;;;;;;;33.31;42.32;100968.13;1888805;75;21113;-63
2021/06/28 08:17:43;;;;;;;10.80;6.42;;;;;;;33.36;42.62;100969.69;1891529;75;21485;-63
2021/06/28 08:20:14;;;;;;;12.88;7.45;;;;;;;33.72;42.84;100967.74;1891645;76;21039;-63
2021/06/28 08:22:43;;;;;;;9.63;6.40;;;;;;;33.72;42.23;100968.57;1891650;75;21454;-63
2021/06/28 08:25:13;;;;;;;14.43;7.05;;;;;;;33.92;43.08;100972.70;1891698;76;21113;-63
2021/06/28 08:27:42;;;;;;;9.13;7.03;;;;;;;34.14;42.17;100969.25;1891426;76;21066;-64
2021/06/28 08:30:12;;;;;;;12.07;6.50;;;;;;;34.35;41.34;100967.38;1891530;76;21031;-64
2021/06/28 08:32:43;;;;;;;10.38;7.30;;;;;;;34.35;41.34;100967.38;1891526;76;21101;-63
2021/06/28 08:35:12;;;;;;;8.95;6.78;;;;;;;34.18;41.21;100969.70;1891482;76;21059;-63
2021/06/28 08:37:40;;;;;;;14.23;7.35;;;;;;;34.05;41.38;100974.60;1891763;76;21035;-63
2021/06/28 08:40:10;;;;;;;12.10;7.85;;;;;;;34.00;41.87;100978.48;1891481;76;21032;-64
2021/06/28 08:42:40;;;;;;;12.78;7.05;;;;;;;33.87;41.60;100976.58;1886436;76;21055;-63
2021/06/28 08:45:09;;;;;;;12.25;7.40;;;;;;;33.61;41.42;100971.35;1872826;77;21130;-63
2021/06/28 08:47:40;;;;;;;14.63;7.40;;;;;;;33.42;42.42;100978.45;1872875;76;21052;-62
2021/06/28 08:50:10;;;;;;;11.03;6.55;;;;;;;33.51;42.38;100974.16;1872769;76;21028;-63
2021/06/28 08:52:40;;;;;;;16.95;7.53;;;;;;;33.52;42.08;100977.22;1872772;76;21126;-64
2021/06/28 08:55:11;;;;;;;10.15;6.72;;;;;;;33.75;41.92;100981.79;1872752;76;21012;-64
2021/06/28 08:57:40;;;;;;;13.50;6.70;;;;;;;33.74;42.11;100977.39;1872859;76;21123;-63
2021/06/28 09:00:15;;;;;;;11.97;6.95;;;;;;;33.93;41.80;100973.00;1872778;76;21005;-63
2021/06/28 09:02:58;;;;;;;12.85;7.53;;;;;;;33.80;41.82;100986.11;1872752;77;21087;-63
2021/06/28 09:05:28;;;;;;;12.90;7.62;;;;;;;33.75;41.76;100983.69;1872877;76;21066;-63
2021/06/28 09:08:11;;;;;;;11.88;7.28;;;;;;;33.73;42.63;100982.52;1872851;77;21052;-63
2021/06/28 09:10:40;;;;;;;;;;;;;;;33.41;42.61;100978.11;1875637;77;21035;-63
2021/06/28 09:13:10;;;;;;;10.32;6.55;;;;;;;33.70;42.59;100991.16;1872789;77;20115;-63
2021/06/28 09:15:42;;;;;;;8.75;6.60;;;;;;;33.82;41.65;100986.74;1872611;76;21040;-62
2021/06/28 09:18:19;;;;;;;13.05;7.70;;;;;;;33.55;41.43;100986.34;1873005;77;21110;-63
2021/06/28 09:20:50;;;;;;;12.33;6.87;;;;;;;33.43;42.67;100982.84;1872769;77;21072;-63
2021/06/28 09:23:21;;;;;;;12.33;7.00;;;;;;;33.54;42.43;100981.94;1872768;77;21036;-63
2021/06/28 09:25:54;;;;;;;11.53;7.17;;;;;;;33.81;42.21;100983.71;1870287;76;21104;-63
2021/06/28 09:28:34;;;;;;;10.98;6.30;;;;;;;33.90;41.88;100991.69;1872889;76;21042;-63
2021/06/28 09:31:04;;;;;;;13.60;7.33;;;;;;;33.91;41.08;100990.13;1872890;76;21114;-63
2021/06/28 09:33:33;;;;;;;14.43;7.08;;;;;;;33.78;41.39;100986.02;1872743;77;21040;-63
2021/06/28 09:36:05;;;;;;;12.23;6.28;;;;;;;33.83;41.67;100993.90;1872744;76;21569;-63
2021/06/28 09:38:37;;;;;;;11.22;6.83;;;;;;;34.00;41.14;100969.75;1871737;76;21501;-63
2021/06/28 09:41:23;;;;;;;;;;;;;;;34.12;40.84;100980.05;1875549;77;21016;-63
2021/06/28 09:43:55;;;;;;;14.43;7.33;;;;;;;34.09;40.08;100971.76;1872831;76;20388;-63
2021/06/28 09:46:24;;;;;;;10.90;6.33;;;;;;;33.85;40.74;100978.14;1872827;76;21059;-63
2021/06/28 09:48:55;;;;;;;10.53;6.00;;;;;;;33.86;40.90;100970.78;1872829;77;21483;-64
2021/06/28 09:51:26;;;;;;;11.40;7.28;;;;;;;33.74;40.23;100979.30;1872839;76;21052;-63
2021/06/28 09:53:58;;;;;;;13.72;6.97;;;;;;;33.53;41.03;100975.61;1872753;77;21079;-63
2021/06/28 09:56:33;;;;;;;15.08;6.92;;;;;;;33.30;42.42;100977.34;1871364;76;21176;-63
2021/06/28 09:59:26;;;;;;;14.35;7.80;;;;;;;33.23;42.21;100956.02;1872770;76;21032;-63
2021/06/28 10:02:19;;;;;;;12.20;7.75;;;;;;;33.01;42.27;100957.45;1872770;76;21060;-63
2021/06/28 10:04:53;;;;;;;10.40;6.95;;;;;;;33.00;42.61;100957.16;1870888;76;21020;-63
2021/06/28 10:07:23;;;;;;;15.93;8.00;;;;;;;32.87;42.70;100959.83;1872569;76;21113;-62
2021/06/28 10:10:15;;;;;;;10.58;6.40;;;;;;;32.93;42.34;100950.82;1872772;76;21061;-63
2021/06/28 10:12:47;;;;;;;13.05;6.20;;;;;;;32.88;42.70;100960.13;1872900;77;21060;-63
2021/06/28 10:15:18;;;;;;;13.15;6.50;;;;;;;32.89;42.34;100959.09;1872738;77;21592;-62
2021/06/28 10:17:48;;;;;;;9.10;5.00;;;;;;;32.86;42.60;100954.03;1873005;77;21016;-63
2021/06/28 10:20:22;;;;;;;18.23;7.28;;;;;;;32.75;42.15;100967.71;1872799;77;21458;-63
2021/06/28 10:22:54;;;;;;;14.15;7.62;;;;;;;32.63;42.38;100965.25;1872739;77;21060;-63
2021/06/28 10:25:25;;;;;;;12.15;7.30;;;;;;;32.40;44.10;100961.38;1872834;76;21509;-63
2021/06/28 10:27:55;;;;;;;14.00;7.17;;;;;;;32.41;44.50;100963.07;1872716;77;21060;-63
2021/06/28 10:30:26;;;;;;;12.03;6.72;;;;;;;32.57;43.87;100949.64;1872872;76;21040;-62
2021/06/28 10:33:00;;;;;;;16.35;7.22;;;;;;;32.55;43.71;100962.09;1872812;75;21177;-63
2021/06/28 10:35:32;;;;;;;12.28;6.50;;;;;;;32.49;43.87;100952.00;1872755;77;21475;-63
2021/06/28 10:38:04;;;;;;;12.40;7.35;;;;;;;32.54;43.69;100954.98;1872990;77;21000;-63
2021/06/28 10:41:01;;;;;;;11.40;6.37;;;;;;;32.35;43.49;100960.59;1872853;77;21052;-63
2021/06/28 10:43:33;;;;;;;13.40;5.75;;;;;;;32.28;44.03;100959.20;1874186;76;21059;-63
2021/06/28 10:46:05;;;;;;;10.43;6.85;;;;;;;32.10;44.06;100959.67;1891588;76;21015;-63
2021/06/28 10:48:49;;;;;;;11.73;6.62;;;;;;;31.89;44.33;100950.98;1891742;75;21451;-63
2021/06/28 10:51:21;;;;;;;14.93;6.92;;;;;;;31.65;45.22;100955.44;1891522;76;21031;-63
2021/06/28 10:53:58;;;;;;;15.23;6.37;;;;;;;31.58;46.01;100958.11;1891239;75;21015;-63
2021/06/28 10:56:33;;;;;;;11.53;7.53;;;;;;;31.55;46.05;100956.59;1891424;76;21032;-63
2021/06/28 10:59:07;;;;;;;14.23;7.45;;;;;;;31.51;46.47;100953.94;1891801;76;21112;-63
2021/06/28 11:01:38;;;;;;;11.78;7.97;;;;;;;31.49;46.31;100959.27;1891491;76;21051;-63
2021/06/28 11:04:19;;;;;;;10.23;7.12;;;;;;;31.22;46.59;100941.23;1891310;76;21031;-63
2021/06/28 11:07:02;;;;;;;13.43;7.70;;;;;;;31.12;46.82;100955.66;1890891;75;21532;-63
2021/06/28 11:09:37;;;;;;;15.88;8.33;;;;;;;30.96;47.40;100964.85;1891437;76;21449;-63
2021/06/28 11:12:20;;;;;;;11.70;8.05;;;;;;;30.82;47.50;100941.20;1891434;76;21156;-63
2021/06/28 11:14:58;;;;;;;11.53;6.70;;;;;;;30.83;47.73;100961.41;1891579;76;21031;-63
2021/06/28 11:17:42;;;;;;;16.25;8.00;;;;;;;30.86;48.10;100960.17;1891510;76;21460;-63
2021/06/28 11:20:23;;;;;;;14.28;7.28;;;;;;;30.88;48.14;100959.50;1891466;75;21085;-63
2021/06/28 11:23:01;;;;;;;14.75;7.35;;;;;;;30.95;48.11;100943.62;1891116;75;21067;-63
2021/06/28 11:25:42;;;;;;;12.95;7.37;;;;;;;31.05;47.86;100956.92;1891502;76;21039;-63
2021/06/28 11:28:17;;;;;;;9.68;7.08;;;;;;;31.03;47.62;100959.52;1891448;75;21087;-62
2021/06/28 11:30:57;;;;;;;13.20;7.80;;;;;;;30.93;47.96;100962.50;1891430;76;21152;-63
2021/06/28 11:33:44;;;;;;;13.35;6.22;;;;;;;30.91;47.93;100956.41;1891468;76;21113;-63